Time;durP1;ratioP1;P1;durP2;ratioP2;P2;SDS_P1;SDS_P2;PMS_P1;PMS_P2;Temp;Humidity;BMP_temperature;BMP_pressure;BME280_temperature;BME280_humidity;BME280_pressure;Samples;Min_cycle;Max_cycle;Signal;HPM_P1;HPM_P2
2022/12/18 00:01:18;;;;;;;107.90;40.73;;;-6.30;99.90;;;;;;4997962;28;20200;-63
2022/12/18 00:04:08;;;;;;;115.53;42.83;;;-6.30;99.90;;;;;;4939389;28;20205;-63
2022/12/18 00:06:56;;;;;;;136.47;46.53;;;-6.30;99.90;;;;;;4950858;28;20523;-62
2022/12/18 00:09:44;;;;;;;113.90;43.10;;;-6.10;99.90;;;;;;4952336;28;20283;-63
2022/12/18 00:12:33;;;;;;;117.67;43.10;;;-6.10;99.90;;;;;;4951690;28;20236;-62
2022/12/18 00:15:22;;;;;;;117.17;42.00;;;-6.10;99.90;;;;;;4957807;28;20263;-63
2022/12/18 00:18:11;;;;;;;120.00;41.67;;;-6.20;99.90;;;;;;4953813;28;20231;-62
2022/12/18 00:21:08;;;;;;;117.13;41.60;;;-6.30;99.90;;;;;;4952513;28;20200;-63
2022/12/18 00:23:59;;;;;;;110.70;39.80;;;-6.40;99.90;;;;;;4951973;28;20209;-62
2022/12/18 00:26:47;;;;;;;120.67;41.50;;;-6.50;99.90;;;;;;4940323;28;20208;-62
2022/12/18 00:29:36;;;;;;;113.30;40.33;;;-6.40;99.90;;;;;;4945259;28;20614;-62
2022/12/18 00:32:25;;;;;;;122.33;39.87;;;-6.30;99.90;;;;;;4953139;28;20227;-62
2022/12/18 00:35:14;;;;;;;118.37;40.57;;;-6.30;99.90;;;;;;4948859;28;20258;-62
2022/12/18 00:38:02;;;;;;;115.03;38.80;;;-6.40;99.90;;;;;;4948493;28;20710;-63
2022/12/18 00:40:51;;;;;;;109.20;38.83;;;-6.40;99.90;;;;;;4953556;28;20555;-62
2022/12/18 00:43:39;;;;;;;123.27;40.37;;;-6.50;99.90;;;;;;4951437;29;20213;-62
2022/12/18 00:46:28;;;;;;;115.50;41.30;;;-6.50;99.90;;;;;;4951626;28;20220;-62
2022/12/18 00:49:19;;;;;;;112.70;41.07;;;-6.60;99.90;;;;;;4951216;28;20208;-62
2022/12/18 00:52:08;;;;;;;109.23;38.90;;;-6.70;99.90;;;;;;4946313;28;20606;-62
2022/12/18 00:54:58;;;;;;;114.73;39.73;;;-6.70;99.90;;;;;;4946619;28;20303;-62
2022/12/18 00:57:53;;;;;;;115.90;41.30;;;-6.80;99.90;;;;;;4948073;28;20200;-62
2022/12/18 01:00:42;;;;;;;119.73;40.37;;;-6.80;99.90;;;;;;4951900;28;20661;-62
2022/12/18 01:03:31;;;;;;;115.50;40.07;;;-6.80;99.90;;;;;;4956370;28;20768;-62
2022/12/18 01:06:20;;;;;;;106.97;37.77;;;-6.90;99.90;;;;;;4981270;28;20273;-62
2022/12/18 01:09:08;;;;;;;108.67;38.83;;;-7.00;99.90;;;;;;4950597;28;20610;-62
2022/12/18 01:11:37;;;;;;;107.23;38.33;;;-7.00;99.90;;;;;;4970778;28;20236;-62
2022/12/18 01:14:05;;;;;;;106.17;37.20;;;-7.10;99.90;;;;;;4948313;28;20209;-62
2022/12/18 01:16:33;;;;;;;106.77;38.90;;;-7.10;99.90;;;;;;4952320;28;20248;-62
2022/12/18 01:19:01;;;;;;;106.87;39.10;;;-7.10;99.90;;;;;;4954573;28;20291;-62
2022/12/18 01:21:31;;;;;;;110.00;38.23;;;-7.10;99.90;;;;;;4951996;28;20211;-62
2022/12/18 01:24:00;;;;;;;108.30;36.73;;;-7.10;99.90;;;;;;4941341;28;20205;-62
2022/12/18 01:26:29;;;;;;;96.57;36.57;;;-7.10;99.90;;;;;;4949090;28;20626;-62
2022/12/18 01:28:58;;;;;;;100.77;36.70;;;-7.20;99.90;;;;;;4952179;29;20242;-62
2022/12/18 01:31:29;;;;;;;106.67;36.47;;;-7.20;99.90;;;;;;4947437;28;20239;-62
2022/12/18 01:33:58;;;;;;;100.73;36.67;;;-7.30;99.90;;;;;;4951347;28;20246;-62
2022/12/18 01:36:29;;;;;;;97.53;36.87;;;-7.20;99.90;;;;;;4955861;28;20266;-62
2022/12/18 01:39:01;;;;;;;104.67;36.60;;;-7.20;99.90;;;;;;4947770;28;20207;-62
2022/12/18 01:42:01;;;;;;;98.27;36.93;;;-7.30;99.90;;;;;;4940164;29;20315;-62
2022/12/18 01:44:58;;;;;;;105.60;35.33;;;-7.30;99.90;;;;;;4947810;28;20208;-62
2022/12/18 01:47:31;;;;;;;111.70;37.23;;;-7.30;99.90;;;;;;4947172;28;20228;-62
2022/12/18 01:50:02;;;;;;;98.00;36.70;;;-7.40;99.90;;;;;;4943877;28;20204;-62
2022/12/18 01:52:33;;;;;;;92.77;34.93;;;-7.40;99.90;;;;;;4948846;28;20310;-61
2022/12/18 01:55:05;;;;;;;105.33;36.33;;;-7.40;99.90;;;;;;4950906;28;20291;-62
2022/12/18 01:57:34;;;;;;;103.03;35.87;;;-7.40;99.90;;;;;;4950664;28;20218;-62
2022/12/18 02:00:07;;;;;;;95.10;35.43;;;-7.40;99.90;;;;;;4944067;28;20236;-62
2022/12/18 02:02:36;;;;;;;104.60;35.67;;;-7.40;99.90;;;;;;4956813;28;20323;-61
2022/12/18 02:05:06;;;;;;;96.57;35.73;;;-7.40;99.90;;;;;;4947930;28;20209;-62
2022/12/18 02:07:42;;;;;;;97.37;36.97;;;-7.40;99.90;;;;;;4952948;28;20232;-62
2022/12/18 02:10:18;;;;;;;103.43;36.13;;;-7.40;99.90;;;;;;4951576;28;20231;-61
2022/12/18 02:12:52;;;;;;;102.27;35.23;;;-7.40;99.90;;;;;;4949472;28;20614;-62
2022/12/18 02:15:27;;;;;;;95.03;33.63;;;-7.40;99.90;;;;;;4949164;28;20273;-62
2022/12/18 02:18:04;;;;;;;92.70;34.57;;;-7.50;99.90;;;;;;4951310;28;20319;-62
2022/12/18 02:20:36;;;;;;;90.50;33.57;;;-7.40;99.90;;;;;;4944109;28;20215;-62
2022/12/18 02:23:20;;;;;;;102.03;35.37;;;-7.50;99.90;;;;;;4957231;28;20269;-62
2022/12/18 02:26:03;;;;;;;104.07;34.20;;;-7.40;99.90;;;;;;4943801;28;20248;-61
2022/12/18 02:28:34;;;;;;;86.87;33.23;;;-7.50;99.90;;;;;;4951152;28;20283;-62
2022/12/18 02:31:06;;;;;;;93.57;31.70;;;-7.50;99.90;;;;;;4946769;28;20618;-62
2022/12/18 02:33:36;;;;;;;91.50;33.40;;;-7.50;99.90;;;;;;4953228;28;20215;-62
2022/12/18 02:36:10;;;;;;;84.60;32.20;;;-7.50;99.90;;;;;;4950135;28;20228;-62
2022/12/18 02:38:40;;;;;;;93.53;32.27;;;-7.50;99.90;;;;;;4948742;28;20274;-62
2022/12/18 02:41:11;;;;;;;87.73;32.97;;;-7.60;99.90;;;;;;4946854;28;20259;-61
2022/12/18 02:43:40;;;;;;;89.67;32.43;;;-7.60;99.90;;;;;;4956628;28;20234;-62
2022/12/18 02:46:38;;;;;;;101.57;33.07;;;-7.60;99.90;;;;;;4961600;28;20224;-62
2022/12/18 02:49:13;;;;;;;88.87;32.73;;;-7.70;99.90;;;;;;4935220;28;20697;-62
2022/12/18 02:51:51;;;;;;;89.27;32.93;;;-7.70;99.90;;;;;;4958955;28;20233;-62
2022/12/18 02:54:34;;;;;;;92.77;32.70;;;-7.70;99.90;;;;;;4950134;28;20235;-62
2022/12/18 02:57:11;;;;;;;88.20;32.93;;;-7.70;99.90;;;;;;4944714;28;20271;-61
2022/12/18 02:59:47;;;;;;;91.03;32.83;;;-7.60;99.90;;;;;;4942979;28;20254;-62
2022/12/18 03:02:22;;;;;;;87.67;32.57;;;-7.60;99.90;;;;;;4950076;28;20253;-62
2022/12/18 03:04:57;;;;;;;94.07;32.40;;;-7.60;99.90;;;;;;4950190;28;20222;-62
2022/12/18 03:07:37;;;;;;;78.13;30.50;;;-7.60;99.90;;;;;;4944975;28;20273;-62
2022/12/18 03:10:09;;;;;;;81.50;29.53;;;-7.70;99.90;;;;;;4949109;28;20261;-62
2022/12/18 03:12:44;;;;;;;79.43;28.23;;;-7.70;99.90;;;;;;4945100;28;20606;-61
2022/12/18 03:15:18;;;;;;;81.37;30.67;;;-7.70;99.90;;;;;;4947758;29;20227;-62
2022/12/18 03:17:53;;;;;;;84.80;29.90;;;-7.70;99.90;;;;;;4943849;28;20263;-62
2022/12/18 03:20:24;;;;;;;85.83;29.47;;;-7.70;99.90;;;;;;4945581;28;20227;-62
2022/12/18 03:22:59;;;;;;;92.30;30.83;;;-7.70;99.90;;;;;;4949966;29;20615;-62
2022/12/18 03:25:29;;;;;;;78.83;28.43;;;-7.70;99.90;;;;;;4953086;28;20294;-62
2022/12/18 03:28:02;;;;;;;82.67;29.77;;;-7.80;99.90;;;;;;4951124;28;20216;-62
2022/12/18 03:30:31;;;;;;;72.97;28.70;;;-7.80;99.90;;;;;;4946098;28;20250;-61
2022/12/18 03:33:06;;;;;;;74.40;29.07;;;-7.90;99.90;;;;;;4948468;28;20207;-62
2022/12/18 03:35:40;;;;;;;81.33;28.43;;;-7.90;99.90;;;;;;4941602;28;20204;-61
2022/12/18 03:38:09;;;;;;;77.80;28.37;;;-7.90;99.90;;;;;;4946795;28;20243;-62
2022/12/18 03:40:45;;;;;;;76.97;26.57;;;-7.90;99.90;;;;;;4947581;28;20232;-62
2022/12/18 03:43:26;;;;;;;73.57;27.63;;;-7.90;99.90;;;;;;4948307;28;20671;-62
2022/12/18 03:46:03;;;;;;;67.90;27.47;;;-8.00;99.90;;;;;;4948403;28;20546;-62
2022/12/18 03:48:37;;;;;;;66.90;26.80;;;-8.00;99.90;;;;;;4990029;28;20204;-62
2022/12/18 03:51:12;;;;;;;73.67;26.33;;;-8.00;99.90;;;;;;4956944;28;20204;-61
2022/12/18 03:53:47;;;;;;;73.50;27.47;;;-8.00;99.90;;;;;;4956089;28;20265;-62
2022/12/18 03:56:18;;;;;;;70.93;26.20;;;-8.10;99.90;;;;;;4948665;28;20207;-62
2022/12/18 03:58:51;;;;;;;69.57;25.80;;;-8.10;99.90;;;;;;4952379;28;20302;-62
2022/12/18 04:01:21;;;;;;;70.43;25.47;;;-8.10;99.90;;;;;;4944174;28;20258;-62
2022/12/18 04:03:51;;;;;;;69.33;26.47;;;-8.10;99.90;;;;;;4949713;28;20206;-61
2022/12/18 04:06:20;;;;;;;68.63;25.20;;;-8.00;99.90;;;;;;4949975;28;20231;-62
2022/12/18 04:08:50;;;;;;;64.30;24.40;;;-8.00;99.90;;;;;;4952631;29;20287;-62
2022/12/18 04:11:18;;;;;;;72.30;24.87;;;-8.00;99.90;;;;;;4946742;28;20208;-62
2022/12/18 04:13:47;;;;;;;67.27;24.60;;;-8.10;99.90;;;;;;4955028;28;20242;-62
2022/12/18 04:16:16;;;;;;;59.07;24.37;;;-8.10;99.90;;;;;;4955499;28;20243;-62
2022/12/18 04:18:44;;;;;;;65.93;24.43;;;-8.00;99.90;;;;;;4988965;28;20215;-62
2022/12/18 04:21:13;;;;;;;68.33;24.63;;;-8.10;99.90;;;;;;4949421;28;20228;-62
2022/12/18 04:23:43;;;;;;;64.43;24.00;;;-8.10;99.90;;;;;;4947592;28;20266;-62
2022/12/18 04:26:11;;;;;;;58.67;24.37;;;-8.10;99.90;;;;;;4953932;28;20279;-62
2022/12/18 04:28:39;;;;;;;58.30;24.50;;;-8.10;99.90;;;;;;4947827;28;20208;-62
2022/12/18 04:31:09;;;;;;;57.80;23.10;;;-8.00;99.90;;;;;;4948907;29;20246;-61
2022/12/18 04:33:37;;;;;;;60.33;23.63;;;-8.10;99.90;;;;;;4949469;28;20280;-62
2022/12/18 04:36:07;;;;;;;56.53;24.00;;;-8.10;99.90;;;;;;4943981;28;20212;-61
2022/12/18 04:38:35;;;;;;;63.47;23.60;;;-8.10;99.90;;;;;;4951478;29;20216;-61
2022/12/18 04:41:03;;;;;;;67.07;24.27;;;-8.10;99.90;;;;;;4950813;28;20651;-62
2022/12/18 04:43:32;;;;;;;67.43;23.87;;;-8.10;99.90;;;;;;4947131;28;20204;-61
2022/12/18 04:46:05;;;;;;;58.47;22.63;;;-8.00;99.90;;;;;;4948152;28;20208;-61
2022/12/18 04:48:38;;;;;;;54.93;22.10;;;-7.80;99.90;;;;;;4948946;28;20239;-62
2022/12/18 04:51:07;;;;;;;69.80;23.10;;;-7.80;99.90;;;;;;4951903;28;20329;-61
2022/12/18 04:53:35;;;;;;;66.53;23.10;;;-7.70;99.90;;;;;;4967269;28;20605;-62
2022/12/18 04:56:06;;;;;;;53.93;21.93;;;-7.60;99.90;;;;;;4950184;28;20196;-62
2022/12/18 04:58:34;;;;;;;58.20;21.97;;;-7.60;99.90;;;;;;4948198;28;20294;-62
2022/12/18 05:01:03;;;;;;;63.83;24.23;;;-7.60;99.90;;;;;;4968545;28;20216;-61
2022/12/18 05:03:31;;;;;;;63.10;22.90;;;-7.60;99.90;;;;;;4966175;28;20297;-61
2022/12/18 05:06:01;;;;;;;59.30;21.87;;;-7.50;99.90;;;;;;4953449;28;20292;-62
2022/12/18 05:08:30;;;;;;;61.07;23.40;;;-7.60;99.90;;;;;;4962699;28;20200;-62
2022/12/18 05:11:02;;;;;;;59.10;22.20;;;-7.60;99.90;;;;;;4954085;28;20208;-62
2022/12/18 05:13:30;;;;;;;61.70;22.40;;;-7.50;99.90;;;;;;4955254;28;20230;-61
2022/12/18 05:15:58;;;;;;;57.33;22.17;;;-7.50;99.90;;;;;;4950558;28;20601;-62
2022/12/18 05:18:27;;;;;;;57.03;22.50;;;-7.50;99.90;;;;;;4944770;28;20235;-62
2022/12/18 05:20:56;;;;;;;62.90;22.30;;;-7.50;99.90;;;;;;4950527;28;20220;-62
2022/12/18 05:23:26;;;;;;;55.43;22.27;;;-7.50;99.90;;;;;;4953012;28;20284;-61
2022/12/18 05:25:54;;;;;;;53.43;22.20;;;-7.50;99.90;;;;;;4948202;28;20209;-62
2022/12/18 05:28:24;;;;;;;57.50;22.60;;;-7.50;99.90;;;;;;4950054;29;20203;-62
2022/12/18 05:30:54;;;;;;;57.23;22.07;;;-7.50;99.90;;;;;;4960162;28;20228;-62
2022/12/18 05:33:24;;;;;;;67.27;23.60;;;-7.50;99.90;;;;;;4951309;28;20274;-62
2022/12/18 05:35:53;;;;;;;63.40;22.87;;;-7.60;99.90;;;;;;4950080;28;20683;-62
2022/12/18 05:38:22;;;;;;;63.63;22.80;;;-7.70;99.90;;;;;;4947712;28;20270;-62
2022/12/18 05:40:53;;;;;;;56.83;21.47;;;-7.70;99.90;;;;;;4945336;29;20236;-62
2022/12/18 05:43:23;;;;;;;54.70;21.10;;;-7.80;99.90;;;;;;4945798;28;20240;-62
2022/12/18 05:45:54;;;;;;;57.80;22.33;;;-7.80;99.90;;;;;;4949234;28;20224;-61
2022/12/18 05:48:22;;;;;;;53.50;21.80;;;-7.80;99.90;;;;;;4948117;28;20566;-62
2022/12/18 05:50:52;;;;;;;57.17;20.93;;;-7.80;99.90;;;;;;4947003;28;20283;-62
2022/12/18 05:53:21;;;;;;;51.20;20.13;;;-7.80;99.90;;;;;;4950344;28;20243;-62
2022/12/18 05:55:49;;;;;;;58.17;21.73;;;-7.80;99.90;;;;;;4944300;28;20298;-62
2022/12/18 05:58:19;;;;;;;56.67;21.40;;;-7.80;99.90;;;;;;4952368;28;20235;-62
2022/12/18 06:00:47;;;;;;;53.63;21.47;;;-7.80;99.90;;;;;;4955738;28;20281;-61
2022/12/18 06:03:16;;;;;;;54.97;21.00;;;-7.80;99.90;;;;;;4960447;28;20225;-62
2022/12/18 06:05:45;;;;;;;54.23;20.87;;;-7.80;99.90;;;;;;4944807;28;20200;-61
2022/12/18 06:08:16;;;;;;;55.27;20.80;;;-7.80;99.90;;;;;;4949338;28;20251;-62
2022/12/18 06:10:52;;;;;;;49.83;20.97;;;-7.80;99.90;;;;;;4951383;28;20232;-61
2022/12/18 06:13:22;;;;;;;51.17;20.63;;;-7.80;99.90;;;;;;4949755;28;20314;-62
2022/12/18 06:15:50;;;;;;;59.30;20.63;;;-7.70;99.90;;;;;;4950513;28;20254;-62
2022/12/18 06:18:19;;;;;;;50.10;21.03;;;-7.70;99.90;;;;;;4945935;28;20245;-62
2022/12/18 06:20:56;;;;;;;57.37;21.43;;;-7.80;99.90;;;;;;4939989;28;20593;-62
2022/12/18 06:23:25;;;;;;;60.27;21.87;;;-7.70;99.90;;;;;;4949437;28;20270;-62
2022/12/18 06:25:53;;;;;;;51.80;20.10;;;-7.70;99.90;;;;;;4951614;28;20201;-62
2022/12/18 06:28:23;;;;;;;54.30;19.67;;;-7.70;99.90;;;;;;4944258;28;20209;-62
2022/12/18 06:30:51;;;;;;;59.10;21.00;;;-7.70;99.90;;;;;;4948105;28;20220;-62
2022/12/18 06:33:19;;;;;;;56.20;21.00;;;-7.70;99.90;;;;;;4947275;28;20274;-62
2022/12/18 06:35:47;;;;;;;50.87;20.23;;;-7.70;99.90;;;;;;4966832;28;20226;-61
2022/12/18 06:38:16;;;;;;;55.53;22.10;;;-7.80;99.90;;;;;;4946119;28;20232;-62
2022/12/18 06:40:44;;;;;;;58.23;21.63;;;-7.80;99.90;;;;;;4954055;28;20255;-62
2022/12/18 06:43:12;;;;;;;48.77;20.50;;;-7.80;99.90;;;;;;4946615;28;20287;-62
2022/12/18 06:45:43;;;;;;;47.83;20.13;;;-7.80;99.90;;;;;;4946887;28;20240;-61
2022/12/18 06:48:11;;;;;;;60.63;21.23;;;-7.80;99.90;;;;;;4946861;28;20224;-62
2022/12/18 06:50:43;;;;;;;63.50;23.07;;;-7.80;99.90;;;;;;4950959;28;20730;-61
2022/12/18 06:53:12;;;;;;;61.13;22.90;;;-7.80;99.90;;;;;;4950976;28;20235;-61
2022/12/18 06:55:40;;;;;;;70.33;25.10;;;-7.70;99.90;;;;;;4973819;28;20239;-62
2022/12/18 06:58:08;;;;;;;65.13;24.27;;;-7.70;99.90;;;;;;4950041;28;20665;-62
2022/12/18 07:00:38;;;;;;;53.50;21.60;;;-7.70;99.90;;;;;;4952310;28;20265;-62
2022/12/18 07:03:08;;;;;;;55.57;23.40;;;-7.70;99.90;;;;;;4950602;28;20647;-62
2022/12/18 07:05:41;;;;;;;57.17;23.10;;;-7.70;99.90;;;;;;4951518;28;20208;-62
2022/12/18 07:08:09;;;;;;;55.80;22.77;;;-7.70;99.90;;;;;;4943663;28;20212;-62
2022/12/18 07:10:42;;;;;;;55.87;23.13;;;-7.70;99.90;;;;;;4943409;28;20223;-62
2022/12/18 07:13:15;;;;;;;59.70;22.40;;;-7.70;99.90;;;;;;4947101;28;20232;-62
2022/12/18 07:15:43;;;;;;;61.23;23.13;;;-7.60;99.90;;;;;;4947810;28;20659;-62
2022/12/18 07:18:13;;;;;;;53.03;21.73;;;-7.60;99.90;;;;;;4947184;28;20601;-62
2022/12/18 07:20:42;;;;;;;51.97;22.07;;;-7.50;99.90;;;;;;4947848;28;20239;-62
2022/12/18 07:23:10;;;;;;;53.80;20.97;;;-7.50;99.90;;;;;;4948970;28;20207;-61
2022/12/18 07:25:39;;;;;;;52.40;21.67;;;-7.50;99.90;;;;;;4948236;28;20216;-62
2022/12/18 07:28:12;;;;;;;54.00;21.33;;;-7.60;99.90;;;;;;4943225;28;20220;-61
2022/12/18 07:30:44;;;;;;;56.50;20.90;;;-7.60;99.90;;;;;;4950322;28;20791;-62
2022/12/18 07:33:16;;;;;;;54.60;21.43;;;-7.70;99.90;;;;;;4956281;28;20211;-62
2022/12/18 07:35:45;;;;;;;55.63;21.13;;;-7.70;99.90;;;;;;4950936;28;20208;-62
2022/12/18 07:38:13;;;;;;;55.97;20.80;;;-7.70;99.90;;;;;;4949154;28;20210;-62
2022/12/18 07:40:48;;;;;;;54.00;20.90;;;-7.80;99.90;;;;;;4947411;28;20223;-62
2022/12/18 07:43:16;;;;;;;48.50;20.77;;;-7.80;99.90;;;;;;4948699;28;20224;-61
2022/12/18 07:45:45;;;;;;;51.00;20.73;;;-7.80;99.90;;;;;;4967273;28;20196;-62
2022/12/18 07:48:14;;;;;;;49.90;20.03;;;-7.80;99.90;;;;;;4944514;28;20202;-62
2022/12/18 07:50:43;;;;;;;56.63;22.00;;;-7.80;99.90;;;;;;4946334;28;20196;-62
2022/12/18 07:53:11;;;;;;;46.13;19.67;;;-7.80;99.90;;;;;;4949805;29;20644;-61
2022/12/18 07:55:39;;;;;;;54.47;21.47;;;-7.90;99.90;;;;;;4952155;28;20574;-62
2022/12/18 07:58:27;;;;;;;52.93;20.33;;;-7.80;99.90;;;;;;4973438;28;20200;-62
2022/12/18 08:01:03;;;;;;;56.30;22.53;;;-7.80;99.90;;;;;;4947318;28;20224;-62
2022/12/18 08:03:35;;;;;;;48.57;20.53;;;-7.70;99.90;;;;;;4957649;28;20192;-62
2022/12/18 08:06:06;;;;;;;60.57;22.73;;;-7.70;99.90;;;;;;4950364;28;20275;-62
2022/12/18 08:08:35;;;;;;;53.93;21.63;;;-7.50;99.90;;;;;;4951589;28;20250;-62
2022/12/18 08:11:16;;;;;;;52.73;21.03;;;-7.40;99.90;;;;;;4944167;29;20196;-62
2022/12/18 08:13:44;;;;;;;55.30;21.60;;;-7.40;99.90;;;;;;4946926;28;20192;-62
2022/12/18 08:16:12;;;;;;;60.73;21.23;;;-7.30;99.90;;;;;;4947134;28;20196;-63
2022/12/18 08:18:42;;;;;;;54.27;21.73;;;-7.30;99.90;;;;;;4951033;28;20203;-62
2022/12/18 08:21:11;;;;;;;48.03;20.73;;;-7.20;99.90;;;;;;4951746;29;20219;-62
2022/12/18 08:23:40;;;;;;;51.40;22.03;;;-7.20;99.90;;;;;;4949689;28;20200;-62
2022/12/18 08:26:10;;;;;;;54.80;21.60;;;-7.10;99.90;;;;;;4947363;28;20257;-62
2022/12/18 08:28:39;;;;;;;53.77;21.47;;;-7.00;99.90;;;;;;4948896;28;20208;-62
2022/12/18 08:31:08;;;;;;;51.20;21.80;;;-7.00;99.90;;;;;;4951125;28;20207;-63
2022/12/18 08:33:37;;;;;;;54.17;20.30;;;-6.90;99.90;;;;;;4945644;28;20210;-63
2022/12/18 08:36:09;;;;;;;48.97;21.63;;;-6.80;99.90;;;;;;4949446;28;20200;-63
2022/12/18 08:38:38;;;;;;;57.57;22.97;;;-6.70;99.90;;;;;;4951333;28;20200;-62
2022/12/18 08:41:11;;;;;;;56.37;24.33;;;-6.60;99.90;;;;;;4978708;28;20224;-62
2022/12/18 08:46:26;;;;;;;57.87;24.37;;;-6.30;99.90;;;;;;4939071;28;20330;-62
2022/12/18 08:48:56;;;;;;;62.40;24.60;;;-6.20;99.90;;;;;;4944276;28;20838;-62
2022/12/18 08:51:25;;;;;;;63.17;25.90;;;-6.00;99.90;;;;;;4945731;28;20192;-62
2022/12/18 08:54:13;;;;;;;64.00;25.90;;;-5.90;99.90;;;;;;4952335;28;20200;-62
2022/12/18 08:56:41;;;;;;;71.70;28.43;;;-5.70;99.90;;;;;;4945082;28;20715;-62
2022/12/18 08:59:10;;;;;;;71.67;31.17;;;-5.60;99.90;;;;;;4953850;28;20200;-62
2022/12/18 09:01:47;;;;;;;73.43;29.97;;;-5.50;99.90;;;;;;4978746;28;20227;-62
2022/12/18 09:04:16;;;;;;;64.23;29.27;;;-5.40;99.90;;;;;;4950696;28;20720;-62
2022/12/18 09:06:45;;;;;;;66.77;28.00;;;-5.30;99.90;;;;;;4966903;28;20279;-62
2022/12/18 09:09:14;;;;;;;60.63;26.37;;;-5.30;99.90;;;;;;4946672;28;20188;-62
2022/12/18 09:11:42;;;;;;;59.73;25.00;;;-5.20;99.90;;;;;;4966568;28;20627;-62
2022/12/18 09:14:11;;;;;;;63.73;28.17;;;-5.10;99.90;;;;;;4948889;28;20203;-62
2022/12/18 09:16:39;;;;;;;58.37;26.13;;;-5.00;99.90;;;;;;4952542;28;20945;-62
2022/12/18 09:19:11;;;;;;;58.87;24.87;;;-4.90;99.90;;;;;;4979454;28;20300;-63
2022/12/18 09:21:39;;;;;;;52.47;22.70;;;-4.80;99.90;;;;;;4948698;28;20227;-63
2022/12/18 09:24:16;;;;;;;49.57;22.93;;;-4.80;99.90;;;;;;4947446;29;20205;-63
2022/12/18 09:26:45;;;;;;;49.57;22.60;;;-4.70;99.90;;;;;;4953054;28;20200;-62
2022/12/18 09:29:16;;;;;;;54.53;23.60;;;-4.60;99.90;;;;;;4950562;28;20196;-62
2022/12/18 09:31:46;;;;;;;51.20;23.00;;;-4.50;99.90;;;;;;4946354;28;20200;-62
2022/12/18 09:34:14;;;;;;;34.43;17.93;;;-4.30;99.90;;;;;;4948446;28;20281;-62
2022/12/18 09:36:42;;;;;;;30.93;15.67;;;-4.20;99.90;;;;;;4948110;28;20204;-62
2022/12/18 09:39:11;;;;;;;31.10;17.10;;;-4.00;99.90;;;;;;4948655;28;20279;-62
2022/12/18 09:41:47;;;;;;;43.87;19.57;;;-3.90;99.90;;;;;;4973333;28;20209;-62
2022/12/18 09:44:20;;;;;;;41.43;20.30;;;-3.80;99.90;;;;;;4950620;28;20582;-62
2022/12/18 09:46:58;;;;;;;31.33;16.03;;;-3.70;99.90;;;;;;4973773;28;20208;-62
2022/12/18 09:49:31;;;;;;;33.97;17.47;;;-3.60;99.90;;;;;;4953258;28;20199;-62
2022/12/18 09:52:05;;;;;;;29.13;15.30;;;-3.50;99.90;;;;;;4952748;28;20216;-63
2022/12/18 09:54:46;;;;;;;29.70;14.40;;;-3.40;99.90;;;;;;4966441;28;20195;-62
2022/12/18 09:57:20;;;;;;;24.90;13.57;;;-3.30;99.90;;;;;;4951524;28;20199;-62
2022/12/18 09:59:54;;;;;;;24.47;12.90;;;-3.20;99.90;;;;;;4951667;28;20201;-63
2022/12/18 10:02:25;;;;;;;24.80;13.97;;;-3.10;99.90;;;;;;4942892;28;20224;-62
2022/12/18 10:05:05;;;;;;;29.23;14.43;;;-3.00;99.90;;;;;;4950118;29;20655;-62
2022/12/18 10:07:40;;;;;;;24.77;13.47;;;-3.00;99.90;;;;;;4941916;28;20204;-61
2022/12/18 10:10:22;;;;;;;21.70;11.90;;;-2.90;99.90;;;;;;4942334;28;20203;-62
2022/12/18 10:12:58;;;;;;;21.00;12.13;;;-2.80;99.90;;;;;;4951194;28;20204;-62
2022/12/18 10:15:39;;;;;;;22.60;12.03;;;-2.80;99.90;;;;;;4948612;29;20261;-62
2022/12/18 10:18:25;;;;;;;24.17;13.27;;;-2.70;99.90;;;;;;4944073;28;20236;-62
2022/12/18 10:20:57;;;;;;;24.83;13.67;;;-2.60;99.90;;;;;;4947416;28;20208;-63
2022/12/18 10:23:33;;;;;;;28.27;15.23;;;-2.60;99.90;;;;;;4947878;29;20207;-63
2022/12/18 10:26:03;;;;;;;26.43;14.83;;;-2.50;99.90;;;;;;4952278;29;20665;-62
2022/12/18 10:28:37;;;;;;;30.03;14.50;;;-2.50;99.90;;;;;;4951776;28;20905;-63
2022/12/18 10:31:07;;;;;;;26.93;14.07;;;-2.40;99.90;;;;;;4950094;28;20209;-62
2022/12/18 10:33:36;;;;;;;23.37;13.47;;;-2.30;99.90;;;;;;4951203;28;20685;-62
2022/12/18 10:36:06;;;;;;;27.10;14.73;;;-2.30;99.90;;;;;;4949041;28;20193;-63
2022/12/18 10:38:34;;;;;;;25.17;13.73;;;-2.20;99.90;;;;;;4966719;28;20211;-62
2022/12/18 10:41:05;;;;;;;28.07;15.03;;;-2.10;99.90;;;;;;4948196;29;20212;-62
2022/12/18 10:43:37;;;;;;;29.37;14.70;;;-2.10;99.90;;;;;;4950688;29;20197;-64
2022/12/18 10:46:15;;;;;;;30.27;15.77;;;-2.00;99.90;;;;;;4953422;28;20724;-62
2022/12/18 10:48:54;;;;;;;27.60;15.70;;;-1.90;99.90;;;;;;4945993;28;20227;-62
2022/12/18 10:51:25;;;;;;;26.57;15.40;;;-1.90;99.90;;;;;;4952045;28;20587;-63
2022/12/18 10:54:02;;;;;;;24.20;14.27;;;-1.80;99.90;;;;;;4954550;28;20196;-63
2022/12/18 10:56:36;;;;;;;28.97;15.00;;;-1.70;99.90;;;;;;4963488;28;20192;-63
2022/12/18 10:59:08;;;;;;;30.13;14.57;;;-1.70;99.90;;;;;;4952772;28;20266;-63
2022/12/18 11:01:48;;;;;;;26.27;15.13;;;-1.60;99.90;;;;;;4944668;29;20212;-62
2022/12/18 11:04:21;;;;;;;27.43;14.67;;;-1.60;99.90;;;;;;4942401;28;20227;-62
2022/12/18 11:06:58;;;;;;;25.53;15.40;;;-1.60;99.90;;;;;;4942254;28;20279;-62
2022/12/18 11:09:32;;;;;;;28.80;15.53;;;-1.50;99.90;;;;;;4953626;28;20204;-63
2022/12/18 11:12:03;;;;;;;29.70;15.97;;;-1.60;99.90;;;;;;4948962;28;20203;-63
2022/12/18 11:14:37;;;;;;;27.70;15.47;;;-1.50;99.90;;;;;;4952442;28;20204;-63
2022/12/18 11:17:21;;;;;;;34.33;16.43;;;-1.50;99.90;;;;;;4969310;28;20236;-62
2022/12/18 11:19:55;;;;;;;29.43;15.73;;;-1.50;99.90;;;;;;4956896;28;20278;-63
2022/12/18 11:22:26;;;;;;;27.33;16.23;;;-1.50;99.90;;;;;;4958725;28;20212;-63
2022/12/18 11:24:58;;;;;;;29.10;15.57;;;-1.40;99.90;;;;;;4955350;28;20196;-63
2022/12/18 11:27:50;;;;;;;32.23;17.53;;;-1.40;99.90;;;;;;4969777;28;20594;-63
2022/12/18 11:30:26;;;;;;;32.27;15.93;;;-1.40;99.90;;;;;;4954919;28;20243;-63
2022/12/18 11:33:00;;;;;;;30.33;16.90;;;-1.30;99.90;;;;;;5035328;28;20188;-62
2022/12/18 11:35:48;;;;;;;32.07;16.13;;;-1.30;99.90;;;;;;4958410;28;20196;-63
2022/12/18 11:38:23;;;;;;;29.97;16.13;;;-1.30;99.90;;;;;;4941040;28;20192;-62
2022/12/18 11:40:57;;;;;;;28.13;15.97;;;-1.20;99.90;;;;;;4947648;28;20228;-62
2022/12/18 11:43:29;;;;;;;33.43;17.20;;;-1.10;99.90;;;;;;4955020;28;20227;-62
2022/12/18 11:46:03;;;;;;;33.60;17.50;;;-1.00;99.90;;;;;;4959278;28;20188;-63
2022/12/18 11:48:34;;;;;;;33.43;17.07;;;-1.00;99.90;;;;;;4954545;28;20201;-62
2022/12/18 11:51:06;;;;;;;32.23;17.00;;;-1.00;99.90;;;;;;4959886;28;20228;-63
2022/12/18 11:53:37;;;;;;;33.30;18.00;;;-1.00;99.90;;;;;;4936159;29;20189;-63
2022/12/18 11:56:27;;;;;;;34.63;17.73;;;-1.00;99.90;;;;;;4956440;28;20201;-62
2022/12/18 11:59:02;;;;;;;33.70;17.57;;;-0.90;99.90;;;;;;4982067;28;20211;-62
2022/12/18 12:01:45;;;;;;;30.77;16.47;;;-0.80;99.90;;;;;;4953797;28;20662;-63
2022/12/18 12:04:51;;;;;;;29.97;15.93;;;-0.80;99.90;;;;;;4954601;28;20189;-62
2022/12/18 12:07:30;;;;;;;27.07;15.23;;;-0.80;99.90;;;;;;4955012;28;20636;-63
2022/12/18 12:10:10;;;;;;;28.87;15.53;;;-0.70;99.90;;;;;;4954443;29;20207;-63
2022/12/18 12:12:55;;;;;;;33.43;16.83;;;-0.70;99.90;;;;;;4945969;28;20193;-62
2022/12/18 12:15:37;;;;;;;27.30;15.60;;;-0.60;99.90;;;;;;4952976;28;20207;-62
2022/12/18 12:18:20;;;;;;;26.03;14.57;;;-0.60;99.90;;;;;;4957680;28;20236;-62
2022/12/18 12:20:55;;;;;;;29.10;16.27;;;-0.60;99.90;;;;;;4955621;28;20207;-63
2022/12/18 12:23:33;;;;;;;31.57;15.60;;;-0.60;99.90;;;;;;4970757;28;20218;-63
2022/12/18 12:26:07;;;;;;;29.73;15.63;;;-0.40;99.90;;;;;;4970161;28;20189;-63
2022/12/18 12:28:57;;;;;;;32.83;16.53;;;-0.40;99.90;;;;;;4953726;28;20227;-63
2022/12/18 12:31:38;;;;;;;28.30;15.20;;;-0.40;99.90;;;;;;4958639;28;20196;-62
2022/12/18 12:34:16;;;;;;;29.47;14.87;;;-0.40;99.90;;;;;;4977984;28;20200;-63
2022/12/18 12:36:58;;;;;;;28.87;15.20;;;-0.30;99.90;;;;;;4952771;28;20200;-63
2022/12/18 12:39:31;;;;;;;27.77;14.93;;;-0.20;99.90;;;;;;4954392;28;20207;-63
2022/12/18 12:44:50;;;;;;;30.43;16.37;;;0.00;99.90;;;;;;4950822;29;21029;-63
2022/12/18 12:47:28;;;;;;;27.33;14.20;;;-0.10;99.90;;;;;;4959513;28;20247;-62
2022/12/18 12:50:01;;;;;;;27.70;14.33;;;0.00;99.90;;;;;;4954383;28;20223;-62
2022/12/18 12:52:36;;;;;;;33.33;15.63;;;0.00;99.90;;;;;;4954392;29;20270;-62
2022/12/18 12:55:13;;;;;;;29.43;14.23;;;0.00;99.90;;;;;;4954425;29;20203;-62
2022/12/18 12:57:48;;;;;;;28.27;15.17;;;0.00;99.90;;;;;;4950473;28;20206;-63
2022/12/18 13:00:20;;;;;;;28.80;14.67;;;0.10;99.90;;;;;;4953803;28;20204;-62
2022/12/18 13:02:57;;;;;;;29.67;14.40;;;0.00;99.90;;;;;;4953868;28;20208;-63
2022/12/18 13:05:35;;;;;;;31.40;16.37;;;0.00;99.90;;;;;;4952760;29;20184;-63